Time;durP1;ratioP1;P1;durP2;ratioP2;P2;SDS_P1;SDS_P2;PMS_P1;PMS_P2;Temp;Humidity;BMP_temperature;BMP_pressure;BME280_temperature;BME280_humidity;BME280_pressure;Samples;Min_cycle;Max_cycle;Signal;HPM_P1;HPM_P2
2023/04/27 00:02:10;;;;;;;9.63;8.35;;;;;;;2.59;nan;102077.97;4993512;28;20329;-45
2023/04/27 00:04:36;;;;;;;12.00;8.18;;;;;;;2.42;nan;102058.59;4993327;28;20033;-46
2023/04/27 00:07:01;;;;;;;10.88;8.50;;;;;;;1.94;nan;102002.19;4993222;28;20085;-41
2023/04/27 00:09:27;;;;;;;13.75;9.48;;;;;;;2.06;nan;101998.97;4993279;28;20034;-44
2023/04/27 00:11:52;;;;;;;11.88;8.43;;;;;;;2.00;nan;101994.50;5008180;28;20117;-42
2023/04/27 00:14:17;;;;;;;11.75;8.48;;;;;;;2.34;nan;102060.13;4993546;28;20061;-43
2023/04/27 00:16:43;;;;;;;11.63;8.57;;;;;;;2.42;nan;102069.84;4993348;28;20065;-43
2023/04/27 00:19:08;;;;;;;12.15;8.75;;;;;;;2.39;nan;102072.41;4993302;28;20042;-45
2023/04/27 00:21:34;;;;;;;9.48;8.00;;;;;;;1.96;nan;101997.00;4993122;28;20096;-43
2023/04/27 00:23:59;;;;;;;13.02;9.48;;;;;;;2.30;nan;102061.81;4993215;28;20034;-40
2023/04/27 00:26:25;;;;;;;12.57;8.70;;;;;;;2.34;nan;102066.19;4993088;28;20445;-45
2023/04/27 00:28:51;;;;;;;13.45;8.32;;;;;;;2.34;nan;102067.91;4992848;28;20493;-41
2023/04/27 00:31:16;;;;;;;10.13;8.07;;;;;;;2.27;nan;102046.16;5008517;28;20038;-46
2023/04/27 00:33:41;;;;;;;11.93;8.48;;;;;;;2.28;nan;102060.03;4992942;28;20433;-45
2023/04/27 00:36:07;;;;;;;11.30;8.63;;;;;;;2.24;nan;102061.69;4992922;28;20473;-44
2023/04/27 00:38:32;;;;;;;9.52;7.90;;;;;;;1.76;nan;101977.53;4992890;28;20030;-44
2023/04/27 00:41:04;;;;;;;15.40;8.63;;;;;;;2.17;nan;102065.88;4992651;28;20070;-44
2023/04/27 00:43:31;;;;;;;13.48;8.68;;;;;;;2.07;nan;102037.94;5008008;28;20437;-40
2023/04/27 00:45:57;;;;;;;16.65;9.02;;;;;;;1.71;nan;101974.84;5007982;28;20387;-40
2023/04/27 00:48:23;;;;;;;11.70;7.70;;;;;;;1.67;nan;101968.72;4992551;28;20125;-42
2023/04/27 00:50:49;;;;;;;10.50;8.45;;;;;;;2.07;nan;102047.47;4992830;28;20494;-43
2023/04/27 00:53:14;;;;;;;13.00;9.07;;;;;;;1.58;nan;101959.84;4991646;28;20030;-44
2023/04/27 00:55:39;;;;;;;16.60;9.38;;;;;;;1.97;nan;102035.13;4992586;28;20058;-47
2023/04/27 00:58:05;;;;;;;16.85;9.05;;;;;;;2.00;nan;102053.34;4992459;28;20420;-42
2023/04/27 01:00:30;;;;;;;12.55;9.05;;;;;;;1.43;nan;101954.34;4992502;28;20093;-42
2023/04/27 01:02:56;;;;;;;15.18;9.52;;;;;;;1.96;nan;102052.41;4992901;28;20041;-41
2023/04/27 01:05:23;;;;;;;13.35;8.90;;;;;;;1.95;nan;102055.88;4992710;28;20035;-40
2023/04/27 01:07:49;;;;;;;18.00;9.98;;;;;;;1.52;nan;101977.88;5007867;28;20041;-44
2023/04/27 01:10:14;;;;;;;17.45;9.07;;;;;;;1.68;nan;102013.72;4992664;28;20038;-45
2023/04/27 01:12:40;;;;;;;12.43;9.32;;;;;;;1.94;nan;102040.25;4992608;28;20041;-46
2023/04/27 01:15:06;;;;;;;11.20;8.45;;;;;;;1.47;nan;101964.81;4992983;28;20142;-45
2023/04/27 01:17:31;;;;;;;14.77;9.50;;;;;;;1.48;nan;101966.56;4992575;28;20046;-48
2023/04/27 01:19:58;;;;;;;11.20;8.60;;;;;;;1.85;nan;102035.72;4992716;28;20042;-41
2023/04/27 01:22:24;;;;;;;15.35;9.75;;;;;;;1.75;nan;102018.22;4992685;28;20038;-42
2023/04/27 01:24:49;;;;;;;11.00;8.52;;;;;;;1.41;nan;101959.47;4992533;28;20500;-44
2023/04/27 01:27:14;;;;;;;14.18;9.00;;;;;;;1.77;nan;102026.00;4992480;28;20463;-45
2023/04/27 01:29:40;;;;;;;13.90;9.70;;;;;;;1.77;nan;102034.69;4992816;28;20038;-41
2023/04/27 01:32:05;;;;;;;11.95;9.45;;;;;;;1.76;nan;102024.25;5007770;28;20446;-43
2023/04/27 01:34:31;;;;;;;13.30;9.77;;;;;;;1.57;nan;102005.69;4993577;28;20034;-48
2023/04/27 01:36:56;;;;;;;13.90;9.75;;;;;;;1.73;nan;102037.16;4996369;28;20089;-44
2023/04/27 01:39:21;;;;;;;17.08;9.73;;;;;;;1.70;nan;102028.47;4996078;28;20050;-49
2023/04/27 01:41:47;;;;;;;14.15;10.15;;;;;;;1.69;nan;102020.66;4996450;28;20154;-48
2023/04/27 01:44:12;;;;;;;13.05;9.73;;;;;;;1.20;nan;101948.59;4996185;28;20030;-43
2023/04/27 01:46:38;;;;;;;13.05;9.23;;;;;;;1.62;nan;102026.56;4996329;28;20442;-45
2023/04/27 01:49:03;;;;;;;13.57;10.13;;;;;;;1.59;nan;102016.97;4995971;28;20481;-42
2023/04/27 01:51:28;;;;;;;13.07;9.95;;;;;;;1.55;nan;102009.06;4995998;28;20049;-44
2023/04/27 01:53:54;;;;;;;15.63;10.75;;;;;;;1.14;nan;101959.72;4995994;28;20126;-43
2023/04/27 01:56:19;;;;;;;14.93;10.73;;;;;;;1.49;nan;102022.78;4995769;28;20030;-46
2023/04/27 01:58:45;;;;;;;16.33;10.63;;;;;;;1.47;nan;102021.88;4995924;28;20497;-42
2023/04/27 02:01:10;;;;;;;14.45;10.27;;;;;;;1.18;nan;101975.34;4995942;28;20444;-41
2023/04/27 02:03:35;;;;;;;15.10;10.57;;;;;;;1.35;nan;102006.03;4995902;28;20034;-49
2023/04/27 02:06:01;;;;;;;15.48;11.15;;;;;;;0.96;nan;101928.16;4995804;28;20478;-47
2023/04/27 02:08:26;;;;;;;16.83;10.70;;;;;;;0.93;nan;101927.22;5010888;28;20390;-42
2023/04/27 02:10:51;;;;;;;15.13;10.40;;;;;;;0.95;nan;101934.19;4994380;28;20050;-41
2023/04/27 02:13:17;;;;;;;14.38;10.68;;;;;;;1.38;nan;102002.63;4995782;28;20034;-43
2023/04/27 02:15:42;;;;;;;15.65;11.65;;;;;;;1.35;nan;102005.16;4995678;28;20062;-46
2023/04/27 02:18:07;;;;;;;13.38;10.38;;;;;;;0.94;nan;101927.25;4994288;28;20096;-44
2023/04/27 02:20:33;;;;;;;16.98;10.63;;;;;;;1.33;nan;101997.34;4995427;28;20038;-44
2023/04/27 02:22:58;;;;;;;15.68;10.35;;;;;;;1.29;nan;101986.84;4995423;28;20074;-45
2023/04/27 02:25:24;;;;;;;14.48;10.63;;;;;;;0.85;nan;101920.97;4994004;28;20034;-44
2023/04/27 02:27:49;;;;;;;16.60;10.18;;;;;;;1.22;nan;101977.19;5010629;28;20045;-48
2023/04/27 02:30:14;;;;;;;14.10;9.75;;;;;;;1.33;nan;101996.47;4995357;28;20058;-44
2023/04/27 02:32:40;;;;;;;15.38;10.15;;;;;;;0.94;nan;101923.78;4995376;28;20038;-40
2023/04/27 02:35:06;;;;;;;17.13;10.15;;;;;;;1.20;nan;101978.88;4995316;28;20053;-42
2023/04/27 02:37:32;;;;;;;12.82;9.48;;;;;;;1.35;nan;101998.25;4995187;28;20065;-46
2023/04/27 02:39:58;;;;;;;16.92;10.43;;;;;;;1.31;nan;101991.25;4995089;28;20066;-42
2023/04/27 02:42:23;;;;;;;15.90;10.25;;;;;;;0.94;nan;101924.66;4994822;28;20034;-48
2023/04/27 02:44:49;;;;;;;14.30;9.00;;;;;;;1.42;nan;101992.38;4993212;28;20030;-45
2023/04/27 02:47:14;;;;;;;12.60;9.48;;;;;;;1.48;nan;101995.09;4994691;28;20073;-47
2023/04/27 02:49:40;;;;;;;12.50;8.95;;;;;;;1.52;nan;101989.13;4995155;28;20034;-42
2023/04/27 02:52:05;;;;;;;16.75;10.15;;;;;;;1.55;nan;101990.91;4994784;28;20125;-45
2023/04/27 02:54:30;;;;;;;13.80;9.55;;;;;;;1.53;nan;101998.69;4993354;28;20037;-41
2023/04/27 02:56:56;;;;;;;13.38;9.35;;;;;;;1.40;nan;101991.44;4994915;28;20090;-46
2023/04/27 02:59:21;;;;;;;14.45;9.93;;;;;;;1.14;nan;101945.88;4994972;28;20042;-45
2023/04/27 03:01:47;;;;;;;15.45;9.00;;;;;;;1.42;nan;102004.47;5009792;28;20041;-43
2023/04/27 03:04:13;;;;;;;13.05;9.70;;;;;;;0.93;nan;101929.81;4994339;28;20030;-43
2023/04/27 03:06:40;;;;;;;11.23;9.43;;;;;;;1.26;nan;101995.44;4994449;28;20049;-48
2023/04/27 03:09:05;;;;;;;11.93;9.30;;;;;;;1.28;nan;102009.34;4994581;28;20419;-43
2023/04/27 03:11:31;;;;;;;15.15;9.05;;;;;;;1.25;nan;102000.59;4993287;28;20065;-43
2023/04/27 03:13:56;;;;;;;17.08;9.68;;;;;;;1.24;nan;102009.22;4994591;28;20026;-43
2023/04/27 03:16:21;;;;;;;15.23;10.00;;;;;;;1.21;nan;102007.41;4994410;28;20053;-46
2023/04/27 03:18:47;;;;;;;14.45;9.38;;;;;;;0.70;nan;101921.47;4994671;28;20073;-46
2023/04/27 03:21:12;;;;;;;14.15;8.75;;;;;;;0.89;nan;101966.88;4994326;28;20419;-46
2023/04/27 03:23:38;;;;;;;12.68;9.65;;;;;;;1.12;nan;102013.25;4992826;28;20530;-46
2023/04/27 03:26:08;;;;;;;12.45;8.55;;;;;;;1.07;nan;102004.50;4993265;28;20405;-43
2023/04/27 03:28:33;;;;;;;13.55;9.13;;;;;;;1.07;nan;102011.41;5009375;28;20034;-44
2023/04/27 03:30:59;;;;;;;15.02;8.98;;;;;;;0.60;nan;101932.47;4994128;28;20034;-45
2023/04/27 03:33:25;;;;;;;16.33;9.50;;;;;;;1.02;nan;102002.63;5009248;28;20034;-40
2023/04/27 03:35:57;;;;;;;14.27;9.93;;;;;;;0.62;nan;101938.53;4994078;28;20034;-45
2023/04/27 03:38:26;;;;;;;14.13;9.35;;;;;;;0.98;nan;102003.38;4992842;28;20030;-42
2023/04/27 03:40:52;;;;;;;14.85;10.43;;;;;;;0.52;nan;101939.16;4992698;28;20406;-44
2023/04/27 03:43:18;;;;;;;14.75;10.27;;;;;;;0.56;nan;101947.03;4993784;28;20041;-46
2023/04/27 03:45:43;;;;;;;16.15;9.60;;;;;;;0.82;nan;102001.22;4993771;28;20533;-46
2023/04/27 03:48:09;;;;;;;12.63;9.63;;;;;;;0.87;nan;102012.63;4993977;28;20320;-44
2023/04/27 03:50:34;;;;;;;14.07;10.18;;;;;;;0.88;nan;102020.41;4993529;28;20065;-44
2023/04/27 03:52:59;;;;;;;12.63;9.90;;;;;;;0.76;nan;102001.09;4993393;28;20125;-44
2023/04/27 03:55:25;;;;;;;15.13;9.45;;;;;;;0.85;nan;102014.28;4992691;28;20157;-46
2023/04/27 03:57:50;;;;;;;14.98;9.95;;;;;;;0.81;nan;102017.66;4993366;28;20485;-42
2023/04/27 04:00:17;;;;;;;18.52;11.25;;;;;;;0.76;nan;102021.84;4993423;28;20525;-44
2023/04/27 04:02:42;;;;;;;17.60;11.30;;;;;;;0.66;nan;102012.94;4992341;28;20175;-48
2023/04/27 04:05:08;;;;;;;24.00;11.60;;;;;;;0.65;nan;102010.28;4993448;28;20038;-41
2023/04/27 04:07:33;;;;;;;15.93;11.23;;;;;;;0.31;nan;101959.31;4993161;28;20038;-46
2023/04/27 04:09:59;;;;;;;15.05;10.93;;;;;;;0.69;nan;102035.47;4993269;28;20038;-46
2023/04/27 04:12:24;;;;;;;13.25;10.75;;;;;;;0.69;nan;102040.63;4993267;28;20034;-44
2023/04/27 04:14:50;;;;;;;18.10;11.13;;;;;;;0.66;nan;102031.06;4993319;28;20038;-44
2023/04/27 04:17:15;;;;;;;16.30;11.25;;;;;;;0.67;nan;102034.56;4993317;28;20035;-45
2023/04/27 04:19:41;;;;;;;17.42;10.30;;;;;;;0.66;nan;102043.16;4991918;28;20604;-46
2023/04/27 04:22:06;;;;;;;16.17;11.02;;;;;;;0.65;nan;102041.38;4993083;28;20030;-44
2023/04/27 04:24:31;;;;;;;21.48;11.07;;;;;;;0.55;nan;102027.31;4992192;28;20129;-44
2023/04/27 04:26:57;;;;;;;17.90;11.70;;;;;;;0.63;nan;102037.88;4993839;28;20041;-41
2023/04/27 04:29:23;;;;;;;15.63;11.48;;;;;;;0.22;nan;101977.19;4993134;28;20034;-49
2023/04/27 04:31:48;;;;;;;17.40;12.00;;;;;;;0.63;nan;102043.06;5008305;28;20031;-44
2023/04/27 04:34:14;;;;;;;19.23;12.77;;;;;;;0.66;nan;102050.91;4993128;28;20525;-46
2023/04/27 04:36:40;;;;;;;21.42;12.85;;;;;;;0.16;nan;101951.13;4992989;28;20265;-43
2023/04/27 04:39:05;;;;;;;18.77;12.70;;;;;;;0.33;nan;101986.13;4993186;28;20382;-47
2023/04/27 04:41:31;;;;;;;17.40;11.93;;;;;;;0.68;nan;102047.53;4993098;28;20052;-45
2023/04/27 04:43:57;;;;;;;18.05;11.98;;;;;;;0.70;nan;102048.44;4992978;28;20058;-48
2023/04/27 04:46:23;;;;;;;14.40;11.48;;;;;;;0.64;nan;102035.34;4993452;28;20053;-44
2023/04/27 04:48:49;;;;;;;18.55;12.35;;;;;;;0.67;nan;102039.72;4992819;28;20038;-50
2023/04/27 04:51:15;;;;;;;14.88;11.40;;;;;;;0.80;nan;102046.97;4992813;28;20042;-45
2023/04/27 04:53:41;;;;;;;15.23;11.02;;;;;;;0.85;nan;102054.03;4991922;28;20030;-42
2023/04/27 04:56:13;;;;;;;19.25;12.27;;;;;;;0.91;nan;102045.53;4991705;28;20034;-44
2023/04/27 04:58:38;;;;;;;16.90;12.23;;;;;;;0.93;nan;102059.44;4992833;28;20118;-47
2023/04/27 05:01:04;;;;;;;16.92;11.38;;;;;;;0.96;nan;102039.63;4991402;28;20437;-42
2023/04/27 05:03:30;;;;;;;13.55;10.70;;;;;;;1.11;nan;102050.41;5007816;28;20034;-42
2023/04/27 05:05:55;;;;;;;16.90;10.95;;;;;;;1.14;nan;102042.69;4993098;28;20031;-41
2023/04/27 05:08:20;;;;;;;16.55;11.75;;;;;;;0.80;nan;101980.47;4993199;28;20038;-44
2023/04/27 05:10:50;;;;;;;19.05;11.23;;;;;;;0.81;nan;101971.88;4994958;28;20092;-43
2023/04/27 05:13:16;;;;;;;14.65;11.10;;;;;;;1.28;nan;102048.25;4996831;28;20073;-43
2023/04/27 05:15:41;;;;;;;16.50;11.18;;;;;;;1.33;nan;102056.13;5011748;28;20062;-41
2023/04/27 05:18:06;;;;;;;15.07;12.02;;;;;;;1.01;nan;101996.56;4995321;28;20049;-45
2023/04/27 05:20:35;;;;;;;16.15;10.73;;;;;;;1.43;nan;102064.16;4996432;28;20445;-42
2023/04/27 05:23:01;;;;;;;14.75;10.98;;;;;;;1.49;nan;102066.91;4996662;28;20113;-42
2023/04/27 05:25:29;;;;;;;15.77;11.75;;;;;;;1.57;nan;102062.78;4996668;28;20121;-44
2023/04/27 05:27:55;;;;;;;18.77;11.02;;;;;;;1.66;nan;102060.38;4995294;28;20045;-49
2023/04/27 05:30:20;;;;;;;15.68;10.25;;;;;;;1.76;nan;102052.81;4978972;28;20038;-45
2023/04/27 05:32:46;;;;;;;15.00;10.15;;;;;;;1.89;nan;102066.13;4996227;28;20106;-44
2023/04/27 05:35:11;;;;;;;16.67;10.48;;;;;;;2.04;nan;102071.63;4996244;28;20035;-44
2023/04/27 05:37:36;;;;;;;13.68;10.57;;;;;;;2.21;nan;102064.22;4996575;28;20069;-45
2023/04/27 05:40:04;;;;;;;16.35;10.55;;;;;;;2.37;nan;102061.06;4994722;28;20086;-46
2023/04/27 05:42:29;;;;;;;16.17;10.05;;;;;;;2.11;nan;101982.63;4996229;28;20449;-49
2023/04/27 05:44:54;;;;;;;12.15;9.88;;;;;;;2.68;nan;102055.66;4996096;28;20035;-44
2023/04/27 05:47:20;;;;;;;13.52;9.85;;;;;;;2.80;nan;102062.81;4995979;28;20030;-45
2023/04/27 05:49:50;;;;;;;15.48;8.25;;;;;;;2.90;nan;102072.50;4996174;28;20042;-44
2023/04/27 05:52:15;;;;;;;9.63;8.00;;;;;;;2.91;nan;102047.38;4996136;28;20502;-46
2023/04/27 05:54:46;;;;;;;14.27;8.20;;;;;;;3.14;nan;102062.56;4996054;28;20065;-46
2023/04/27 05:57:11;;;;;;;14.40;8.33;;;;;;;3.18;nan;102061.72;5011227;28;20058;-46
2023/04/27 05:59:36;;;;;;;11.90;7.97;;;;;;;3.31;nan;102050.69;4995987;28;20310;-46
2023/04/27 06:02:02;;;;;;;11.65;7.85;;;;;;;3.14;nan;102002.72;4995621;28;20091;-44
2023/04/27 06:04:28;;;;;;;11.40;8.25;;;;;;;3.25;nan;102001.16;4996005;28;20034;-43
2023/04/27 06:06:53;;;;;;;11.40;7.88;;;;;;;3.45;nan;102009.25;4995935;28;20069;-43
2023/04/27 06:09:19;;;;;;;7.90;7.03;;;;;;;3.98;nan;102059.50;4996122;28;20046;-44
2023/04/27 06:11:46;;;;;;;11.43;6.95;;;;;;;3.79;nan;102006.31;4995737;28;20043;-45
2023/04/27 06:14:12;;;;;;;12.93;7.30;;;;;;;4.17;nan;102053.72;4995468;28;20038;-45
2023/04/27 06:16:39;;;;;;;11.18;7.53;;;;;;;4.45;nan;102076.66;5010604;28;20042;-42
2023/04/27 06:19:05;;;;;;;9.00;6.90;;;;;;;4.57;nan;102090.69;5010297;28;20042;-47
2023/04/27 06:21:33;;;;;;;9.93;6.72;;;;;;;4.72;nan;102081.31;4995687;28;20042;-46
2023/04/27 06:23:59;;;;;;;10.30;7.57;;;;;;;4.46;nan;102012.34;4994434;28;20440;-49
2023/04/27 06:26:25;;;;;;;9.18;6.75;;;;;;;4.82;nan;102045.75;4995384;28;20037;-45
2023/04/27 06:28:50;;;;;;;10.10;7.45;;;;;;;5.10;nan;102069.53;4995348;28;20397;-45
2023/04/27 06:31:16;;;;;;;12.20;7.65;;;;;;;5.28;nan;102078.41;4995199;28;20121;-44
2023/04/27 06:33:41;;;;;;;11.60;7.10;;;;;;;5.51;nan;102092.53;4994456;28;20070;-52
2023/04/27 06:36:06;;;;;;;10.50;6.85;;;;;;;5.30;nan;102027.06;4994152;28;20030;-40
2023/04/27 06:38:32;;;;;;;8.23;6.22;;;;;;;5.78;nan;102090.09;4993904;28;20513;-48
2023/04/27 06:40:58;;;;;;;11.27;7.15;;;;;;;5.94;nan;102098.97;4993713;28;20062;-49
2023/04/27 06:43:23;;;;;;;7.18;6.10;;;;;;;6.02;nan;102090.31;5010194;28;20114;-46
2023/04/27 06:45:48;;;;;;;11.15;7.15;;;;;;;6.16;nan;102101.72;5009878;28;20030;-48
2023/04/27 06:48:14;;;;;;;6.28;5.25;;;;;;;6.20;nan;102102.59;4994792;28;20039;-42
2023/04/27 06:50:39;;;;;;;6.68;5.25;;;;;;;6.28;nan;102093.06;4995013;28;20042;-46
2023/04/27 06:53:05;;;;;;;7.50;5.53;;;;;;;6.17;nan;102053.78;4995058;28;20042;-44
2023/04/27 06:55:30;;;;;;;6.63;5.50;;;;;;;6.27;nan;102053.84;4994859;28;20037;-47
2023/04/27 06:57:55;;;;;;;6.90;4.93;;;;;;;6.74;nan;102104.63;4994921;28;20065;-42
2023/04/27 07:00:21;;;;;;;7.47;4.63;;;;;;;6.82;nan;102115.97;4994773;28;20042;-45
2023/04/27 07:02:46;;;;;;;6.88;4.90;;;;;;;6.69;nan;102060.09;4994879;28;20035;-49
2023/04/27 07:05:11;;;;;;;8.02;5.10;;;;;;;6.91;nan;102066.28;4994760;28;20046;-43
2023/04/27 07:07:37;;;;;;;9.77;4.45;;;;;;;7.54;nan;102107.34;4994780;28;20034;-44
2023/04/27 07:10:02;;;;;;;6.32;4.80;;;;;;;7.70;nan;102072.44;4994618;28;20065;-43
2023/04/27 07:12:28;;;;;;;7.10;4.95;;;;;;;8.36;nan;102117.75;4993280;28;20034;-46
2023/04/27 07:14:54;;;;;;;7.10;4.55;;;;;;;8.77;nan;102084.34;4994338;28;20058;-47
2023/04/27 07:17:20;;;;;;;7.15;4.45;;;;;;;9.20;nan;102116.47;4994389;28;20501;-44
2023/04/27 07:19:45;;;;;;;8.57;4.63;;;;;;;9.43;nan;102117.19;4994287;28;20034;-43
2023/04/27 07:22:10;;;;;;;8.13;4.68;;;;;;;9.82;nan;102117.75;4993067;28;20074;-44
2023/04/27 07:24:36;;;;;;;5.28;3.75;;;;;;;9.92;nan;102132.56;4992903;28;20528;-45
2023/04/27 07:27:02;;;;;;;7.20;3.92;;;;;;;9.81;nan;102082.69;4994271;28;20042;-42
2023/04/27 07:29:29;;;;;;;4.78;3.33;;;;;;;10.31;nan;102126.06;4993954;28;20030;-41
2023/04/27 07:31:54;;;;;;;3.70;3.40;;;;;;;10.23;nan;102125.28;4993694;28;20031;-46
2023/04/27 07:34:20;;;;;;;5.13;3.70;;;;;;;10.49;nan;102136.38;4994049;28;20058;-43
2023/04/27 07:36:45;;;;;;;6.57;3.58;;;;;;;10.62;nan;102130.94;4994194;28;20429;-42
2023/04/27 07:39:11;;;;;;;5.57;4.07;;;;;;;10.61;nan;102136.25;4993574;28;20136;-43
2023/04/27 07:41:36;;;;;;;6.03;3.83;;;;;;;10.59;nan;102103.81;4993779;28;20053;-40
2023/04/27 07:44:02;;;;;;;6.03;3.85;;;;;;;10.65;nan;102083.50;4993851;28;20061;-46
2023/04/27 07:46:29;;;;;;;5.03;3.53;;;;;;;11.27;nan;102132.72;4993685;28;20048;-44
2023/04/27 07:48:54;;;;;;;7.32;3.38;;;;;;;11.57;nan;102085.66;4992483;28;20468;-46
2023/04/27 07:51:20;;;;;;;5.28;3.47;;;;;;;11.54;nan;102068.13;5008865;28;20134;-48
2023/04/27 07:53:45;;;;;;;5.32;3.60;;;;;;;11.51;nan;102065.53;4993568;28;20061;-44
2023/04/27 07:56:11;;;;;;;7.43;3.90;;;;;;;11.90;nan;102068.41;4992377;28;20042;-47
2023/04/27 07:58:36;;;;;;;4.78;3.55;;;;;;;11.96;nan;102121.09;4993366;28;20034;-45
2023/04/27 08:01:02;;;;;;;4.55;3.58;;;;;;;12.01;nan;102130.66;4993495;28;20042;-46
2023/04/27 08:03:27;;;;;;;7.63;3.80;;;;;;;12.01;nan;102127.13;4992331;28;20038;-45
2023/04/27 08:05:53;;;;;;;6.55;4.03;;;;;;;11.97;nan;102114.88;4991372;28;20517;-47
2023/04/27 08:08:18;;;;;;;6.93;3.55;;;;;;;12.19;nan;102117.13;4991006;28;20045;-41
2023/04/27 08:10:43;;;;;;;4.07;3.10;;;;;;;12.48;nan;102118.31;4986016;28;20041;-44
2023/04/27 08:13:09;;;;;;;4.05;3.08;;;;;;;12.46;nan;102117.50;4990143;28;20449;-44
2023/04/27 08:15:35;;;;;;;4.63;3.38;;;;;;;12.55;nan;102114.69;4993082;28;20069;-45
2023/04/27 08:18:01;;;;;;;4.47;2.85;;;;;;;12.70;nan;102065.00;4991559;28;20034;-48
2023/04/27 08:20:26;;;;;;;4.68;3.15;;;;;;;13.15;nan;102086.06;4990890;28;20457;-45
2023/04/27 08:22:51;;;;;;;4.93;3.10;;;;;;;13.53;nan;102123.06;4991324;28;20478;-44
2023/04/27 08:25:17;;;;;;;6.40;3.10;;;;;;;13.65;nan;102119.25;4993165;28;20026;-46
2023/04/27 08:27:42;;;;;;;4.50;3.05;;;;;;;13.36;nan;102069.69;4984541;28;20038;-46
2023/04/27 08:30:08;;;;;;;6.45;3.17;;;;;;;13.84;nan;102131.09;4988835;28;20081;-46
2023/04/27 08:32:33;;;;;;;6.30;2.97;;;;;;;13.83;nan;102114.38;4982382;28;20114;-42
2023/04/27 08:34:59;;;;;;;14.23;3.85;;;;;;;13.24;nan;102059.41;4993073;28;20340;-46
2023/04/27 08:37:24;;;;;;;6.60;3.15;;;;;;;13.22;nan;102124.69;4993016;28;20041;-45
2023/04/27 08:39:49;;;;;;;2.95;2.65;;;;;;;13.01;nan;102109.28;4991038;28;20050;-44
2023/04/27 08:42:15;;;;;;;4.35;2.67;;;;;;;12.76;nan;102117.72;4982424;28;20045;-47
2023/04/27 08:44:41;;;;;;;4.70;2.40;;;;;;;12.39;nan;102048.09;4980364;28;20398;-45
2023/04/27 08:47:07;;;;;;;3.28;2.97;;;;;;;12.62;nan;102106.59;4993210;28;20405;-43
2023/04/27 08:49:33;;;;;;;4.22;2.30;;;;;;;12.93;nan;102109.41;4975360;28;20043;-45
2023/04/27 08:51:59;;;;;;;4.90;2.75;;;;;;;12.97;nan;102103.19;5007927;28;20046;-47
2023/04/27 08:54:24;;;;;;;3.35;2.40;;;;;;;12.96;nan;102104.94;4992856;28;20102;-46
2023/04/27 08:56:50;;;;;;;6.60;2.92;;;;;;;13.18;nan;102101.84;5007957;28;20474;-46
2023/04/27 08:59:16;;;;;;;5.53;2.78;;;;;;;13.41;nan;102051.94;4992763;28;20493;-50
2023/04/27 09:01:48;;;;;;;3.20;2.38;;;;;;;14.41;nan;102110.19;4992704;28;20050;-46
2023/04/27 09:04:14;;;;;;;5.95;2.60;;;;;;;14.29;nan;102044.28;4992686;28;20030;-47
2023/04/27 09:06:40;;;;;;;6.78;4.97;;;;;;;15.05;nan;102099.44;4992721;28;20041;-46
2023/04/27 09:09:07;;;;;;;4.72;3.13;;;;;;;14.92;nan;102041.50;4992718;28;20537;-42
2023/04/27 09:11:37;;;;;;;7.20;4.22;;;;;;;15.51;nan;102031.63;4992602;28;20038;-43
2023/04/27 09:14:23;;;;;;;6.40;2.88;;;;;;;16.17;nan;102047.84;4992774;28;20074;-44
2023/04/27 09:16:56;;;;;;;5.05;2.33;;;;;;;16.70;nan;102108.81;4992814;28;20038;-43
2023/04/27 09:19:29;;;;;;;3.15;2.45;;;;;;;16.30;nan;102101.41;4992832;28;20043;-41
2023/04/27 09:22:06;;;;;;;3.97;2.90;;;;;;;16.21;nan;102078.72;4991304;28;20034;-46
2023/04/27 09:24:31;;;;;;;5.25;2.58;;;;;;;16.21;nan;102081.38;4991366;28;20030;-46
2023/04/27 09:26:56;;;;;;;3.13;2.38;;;;;;;16.13;nan;102090.53;4992768;28;20046;-47
2023/04/27 09:29:42;;;;;;;3.55;2.45;;;;;;;16.28;nan;102093.53;4991506;28;20026;-46
2023/04/27 09:32:19;;;;;;;5.45;2.72;;;;;;;16.31;nan;102079.25;4990870;28;20141;-45
2023/04/27 09:34:45;;;;;;;4.50;2.85;;;;;;;16.23;nan;102036.13;4992419;28;20034;-44
2023/04/27 09:37:10;;;;;;;4.57;2.55;;;;;;;16.93;nan;102095.50;4992435;28;20041;-49
2023/04/27 09:39:37;;;;;;;5.05;3.25;;;;;;;17.36;nan;102094.69;4990949;28;20055;-49
2023/04/27 09:42:03;;;;;;;4.32;2.72;;;;;;;17.35;nan;102103.59;4980706;28;20043;-49
2023/04/27 09:44:30;;;;;;;4.45;3.08;;;;;;;17.60;nan;102104.34;4971847;28;20043;-42
2023/04/27 09:46:57;;;;;;;5.28;3.10;;;;;;;17.16;nan;102102.59;4991167;28;20042;-43
2023/04/27 09:49:24;;;;;;;5.13;2.72;;;;;;;17.15;nan;102088.44;4990361;28;20050;-42
2023/04/27 09:51:49;;;;;;;5.22;2.85;;;;;;;16.82;nan;102055.16;4992445;28;20045;-48
2023/04/27 09:54:15;;;;;;;5.50;3.88;;;;;;;17.16;nan;102106.09;4988177;28;20105;-44
2023/04/27 09:57:02;;;;;;;6.65;3.60;;;;;;;17.52;nan;102095.78;4994248;28;20030;-43
2023/04/27 10:00:09;;;;;;;3.40;2.85;;;;;;;17.96;nan;102094.81;4995681;28;20473;-44
2023/04/27 10:02:41;;;;;;;4.18;2.90;;;;;;;18.52;nan;102089.66;4960580;28;20477;-43
2023/04/27 10:05:29;;;;;;;4.45;3.10;;;;;;;18.76;nan;102105.47;4993878;28;20121;-43
2023/04/27 10:07:54;;;;;;;6.95;3.15;;;;;;;19.10;nan;102100.28;4995579;28;20405;-44
2023/04/27 10:10:19;;;;;;;4.57;3.30;;;;;;;17.99;nan;102038.72;4994929;28;20042;-43
2023/04/27 10:13:00;;;;;;;6.05;3.47;;;;;;;18.11;nan;102036.44;4995733;28;20238;-44
2023/04/27 10:15:29;;;;;;;6.53;3.30;;;;;;;18.58;nan;102040.50;4991949;28;20038;-42
2023/04/27 10:17:57;;;;;;;3.75;3.30;;;;;;;19.09;nan;102080.72;4992451;28;20696;-42
2023/04/27 10:20:35;;;;;;;3.47;3.15;;;;;;;19.17;nan;102028.78;4995359;28;20038;-43
2023/04/27 10:23:00;;;;;;;4.57;3.28;;;;;;;19.79;nan;102079.09;4994331;28;20037;-43
2023/04/27 10:25:39;;;;;;;4.70;3.20;;;;;;;19.72;nan;102080.31;4995524;28;20042;-45
2023/04/27 10:28:06;;;;;;;3.67;3.10;;;;;;;19.46;nan;102037.13;4992539;28;20049;-47
2023/04/27 10:30:36;;;;;;;5.68;3.75;;;;;;;19.53;nan;102083.03;4994710;28;20039;-42
2023/04/27 10:33:08;;;;;;;4.93;3.15;;;;;;;19.74;nan;102081.97;4995126;28;20040;-49
2023/04/27 10:35:36;;;;;;;10.13;3.83;;;;;;;19.90;nan;102087.41;4994280;28;20041;-45
2023/04/27 10:38:09;;;;;;;5.30;3.42;;;;;;;19.98;nan;102071.84;4993177;28;20113;-47
2023/04/27 10:40:37;;;;;;;3.33;3.03;;;;;;;20.09;nan;102022.22;4995301;28;20141;-42
2023/04/27 10:43:12;;;;;;;3.53;3.10;;;;;;;20.75;nan;102073.88;4995006;28;20031;-46
2023/04/27 10:45:38;;;;;;;5.38;3.20;;;;;;;21.17;nan;102069.78;4994745;28;20034;-42
2023/04/27 10:48:04;;;;;;;4.63;3.60;;;;;;;20.98;nan;102063.72;4993082;28;20049;-45
2023/04/27 10:50:30;;;;;;;3.95;2.92;;;;;;;21.45;nan;102064.56;4995188;28;20121;-43
2023/04/27 10:53:05;;;;;;;3.97;3.20;;;;;;;21.17;nan;102002.84;4993928;28;20042;-47
2023/04/27 10:55:32;;;;;;;6.03;3.30;;;;;;;20.95;nan;101999.66;4993647;28;20465;-43
2023/04/27 10:57:58;;;;;;;4.50;3.53;;;;;;;21.57;nan;102012.91;4992981;28;20085;-47
2023/04/27 11:00:29;;;;;;;3.72;3.33;;;;;;;21.66;nan;102006.16;4993668;28;20060;-43
2023/04/27 11:02:57;;;;;;;4.30;3.70;;;;;;;21.84;nan;102051.47;4992560;28;20033;-47
2023/04/27 11:05:32;;;;;;;7.18;3.38;;;;;;;22.03;nan;102053.09;4994143;28;20039;-44
2023/04/27 11:08:05;;;;;;;3.97;3.53;;;;;;;21.96;nan;102043.69;4989446;28;20069;-45
2023/04/27 11:10:31;;;;;;;5.00;3.75;;;;;;;21.83;nan;102036.34;4994212;28;20026;-43
2023/04/27 11:12:56;;;;;;;4.70;3.80;;;;;;;21.56;nan;102023.75;4993397;28;20049;-43
2023/04/27 11:15:22;;;;;;;4.85;3.63;;;;;;;21.92;nan;102052.88;4994699;28;20110;-43
2023/04/27 11:17:47;;;;;;;4.15;3.65;;;;;;;21.84;nan;102027.34;4993366;28;20034;-45
2023/04/27 11:20:15;;;;;;;4.00;3.38;;;;;;;21.75;nan;102046.66;4994268;28;20080;-43
2023/04/27 11:22:45;;;;;;;4.93;3.30;;;;;;;20.35;nan;101950.44;4992593;28;20077;-44
2023/04/27 11:25:10;;;;;;;4.10;3.35;;;;;;;21.08;nan;102024.78;4994409;28;20073;-41
2023/04/27 11:27:37;;;;;;;3.65;3.35;;;;;;;21.12;nan;101968.31;4992765;28;20030;-41
2023/04/27 11:30:04;;;;;;;3.83;3.47;;;;;;;21.55;nan;101987.19;4993684;28;20470;-44
2023/04/27 11:32:30;;;;;;;5.30;4.03;;;;;;;22.04;nan;102019.94;4991631;28;20030;-43
2023/04/27 11:34:55;;;;;;;5.55;3.75;;;;;;;21.82;nan;102020.38;4993904;28;20068;-50
2023/04/27 11:37:25;;;;;;;4.18;3.78;;;;;;;21.17;nan;102022.44;4994106;28;20124;-45
2023/04/27 11:39:52;;;;;;;6.23;4.30;;;;;;;20.42;nan;102016.03;4976600;28;20085;-45